^^
Station Historical Data
Daily Summary for January 11, 2018 Units:  Both    English   Metric
« Previous Day
Next Day »
Daily Weekly Monthly Yearly Custom
  High: Low: Average:
Temperature: TemperatureF °F /  -17.8 °C 74.3 °F /  23.5 °C 78.4 °F /  25.8 °C
Dew Point: DewpointF °F /  -17.8 °C 42.1 °F /  5.6 °C 45.4 °F /  7.4 °C
Humidity: Humidity% 23% 31%
Wind Speed: WindSpeedMPHmph /  0km/h - -16.9mph /  -27.2km/h
Wind Gust: WindSpeedGustMPHmph /  0km/h - -
Wind- -
Pressure: PressureIn in /  0 hPa 29.57 in /  1001.2 hPa -
Precipitation: 0.00 in /  0 mm    
Historical Graphs
 
 
Tabular Data for January 11, 2018
Time Temperature Dew Point Pressure Wind Wind Speed Wind Gust Humidity Rainfall Rate (Hourly) solar Conditions
TemperatureF °F /  -17.8 °C DewpointF °F /  -17.8 °C PressureInin /  0hPa Calm     Humidity% HourlyPrecipInin /  0mm SoftwareType W/m2 Conditions
09:03 74.3 °F /  23.5 °C 48.4 °F /  9.1 °C 29.61in /  1002.6hPa North -999.9mph /  -1609.1km/h -999.0mph /  -1607.7km/h 40% 0.00in /  0mm meteobridge W/m2
09:10 75.0 °F /  23.9 °C 48.4 °F /  9.1 °C 29.61in /  1002.6hPa NNE 10.1mph /  16.3km/h 14.0mph /  22.5km/h 39% 0.00in /  0mm meteobridge W/m2
09:18 75.0 °F /  23.9 °C 49.1 °F /  9.5 °C 29.61in /  1002.6hPa East 4.9mph /  7.9km/h 9.0mph /  14.5km/h 40% 0.00in /  0mm meteobridge W/m2
09:24 75.7 °F /  24.3 °C 49.6 °F /  9.8 °C 29.61in /  1002.6hPa ENE 2.9mph /  4.7km/h 6.0mph /  9.7km/h 40% 0.00in /  0mm meteobridge W/m2
09:30 76.1 °F /  24.5 °C 49.3 °F /  9.6 °C 29.61in /  1002.6hPa East 4.9mph /  7.9km/h 13.0mph /  20.9km/h 39% 0.00in /  0mm meteobridge W/m2
09:42 77.4 °F /  25.2 °C 50.5 °F /  10.3 °C 29.61in /  1002.6hPa NE 8.9mph /  14.3km/h 13.0mph /  20.9km/h 39% 0.00in /  0mm meteobridge W/m2
09:49 78.4 °F /  25.8 °C 50.0 °F /  10 °C 29.61in /  1002.6hPa North 11.0mph /  17.7km/h 11.0mph /  17.7km/h 37% 0.00in /  0mm meteobridge W/m2
09:55 78.1 °F /  25.6 °C 49.6 °F /  9.8 °C 29.61in /  1002.6hPa NE 10.1mph /  16.3km/h 14.0mph /  22.5km/h 37% 0.00in /  0mm meteobridge W/m2
10:01 78.3 °F /  25.7 °C 49.8 °F /  9.9 °C 29.61in /  1002.6hPa NNE 16.1mph /  25.9km/h 18.0mph /  29km/h 37% 0.00in /  0mm meteobridge W/m2
10:07 77.9 °F /  25.5 °C 50.2 °F /  10.1 °C 29.60in /  1002.3hPa NNE 15.0mph /  24.1km/h 18.0mph /  29km/h 38% 0.00in /  0mm meteobridge W/m2
10:13 78.1 °F /  25.6 °C 49.6 °F /  9.8 °C 29.61in /  1002.6hPa NNE 11.0mph /  17.7km/h 18.0mph /  29km/h 37% 0.00in /  0mm meteobridge W/m2
10:19 78.4 °F /  25.8 °C 50.0 °F /  10 °C 29.60in /  1002.3hPa NNE 13.0mph /  20.9km/h 18.0mph /  29km/h 37% 0.00in /  0mm meteobridge W/m2
10:25 78.6 °F /  25.9 °C 50.2 °F /  10.1 °C 29.60in /  1002.3hPa NNE 10.1mph /  16.3km/h 12.0mph /  19.3km/h 37% 0.00in /  0mm meteobridge W/m2
10:35 79.7 °F /  26.5 °C 49.6 °F /  9.8 °C 29.60in /  1002.3hPa NE 4.9mph /  7.9km/h 16.0mph /  25.7km/h 35% 0.00in /  0mm meteobridge W/m2
10:41 79.9 °F /  26.6 °C 50.5 °F /  10.3 °C 29.60in /  1002.3hPa North 17.9mph /  28.8km/h 18.0mph /  29km/h 36% 0.00in /  0mm meteobridge W/m2
10:47 79.5 °F /  26.4 °C 48.7 °F /  9.3 °C 29.60in /  1002.3hPa ENE 12.1mph /  19.5km/h 22.0mph /  35.4km/h 34% 0.00in /  0mm meteobridge W/m2
10:53 80.6 °F /  27 °C 50.4 °F /  10.2 °C 29.61in /  1002.6hPa ENE 6.0mph /  9.7km/h 10.0mph /  16.1km/h 35% 0.00in /  0mm meteobridge W/m2
10:59 81.3 °F /  27.4 °C 48.6 °F /  9.2 °C 29.60in /  1002.3hPa ENE 8.1mph /  13km/h 13.0mph /  20.9km/h 32% 0.00in /  0mm meteobridge W/m2
11:05 81.1 °F /  27.3 °C 45.9 °F /  7.7 °C 29.60in /  1002.3hPa North 17.0mph /  27.4km/h 25.0mph /  40.2km/h 29% 0.00in /  0mm meteobridge W/m2
11:11 81.3 °F /  27.4 °C 47.8 °F /  8.8 °C 29.60in /  1002.3hPa NNE 13.0mph /  20.9km/h 21.0mph /  33.8km/h 31% 0.00in /  0mm meteobridge W/m2
11:19 82.0 °F /  27.8 °C 49.3 °F /  9.6 °C 29.60in /  1002.3hPa NNE 16.1mph /  25.9km/h 16.1mph /  25.9km/h 32% 0.00in /  0mm meteobridge W/m2
11:27 83.7 °F /  28.7 °C 49.8 °F /  9.9 °C 29.60in /  1002.3hPa NE 4.9mph /  7.9km/h 7.0mph /  11.3km/h 31% 0.00in /  0mm meteobridge W/m2
11:34 84.0 °F /  28.9 °C 48.4 °F /  9.1 °C 29.60in /  1002.3hPa North 15.0mph /  24.1km/h 15.0mph /  24.1km/h 29% 0.00in /  0mm meteobridge W/m2
11:46 82.9 °F /  28.3 °C 46.4 °F /  8 °C 29.59in /  1001.9hPa NNE 10.1mph /  16.3km/h 15.0mph /  24.1km/h 28% 0.00in /  0mm meteobridge W/m2
11:52 83.1 °F /  28.4 °C 47.7 °F /  8.7 °C 29.60in /  1002.3hPa ENE 6.0mph /  9.7km/h 11.0mph /  17.7km/h 29% 0.00in /  0mm meteobridge W/m2
12:10 84.9 °F /  29.4 °C 47.1 °F /  8.4 °C 29.59in /  1001.9hPa NE 6.0mph /  9.7km/h 14.0mph /  22.5km/h 27% 0.00in /  0mm meteobridge W/m2
12:17 84.4 °F /  29.1 °C 46.8 °F /  8.2 °C 29.59in /  1001.9hPa NE 8.9mph /  14.3km/h 10.0mph /  16.1km/h 27% 0.00in /  0mm meteobridge W/m2
12:23 84.7 °F /  29.3 °C 47.1 °F /  8.4 °C 29.59in /  1001.9hPa ENE 6.0mph /  9.7km/h 18.0mph /  29km/h 27% 0.00in /  0mm meteobridge W/m2
12:31 84.9 °F /  29.4 °C 46.2 °F /  7.9 °C 29.59in /  1001.9hPa NE 15.0mph /  24.1km/h 21.0mph /  33.8km/h 26% 0.00in /  0mm meteobridge W/m2
12:37 85.6 °F /  29.8 °C 43.5 °F /  6.4 °C 29.59in /  1001.9hPa NNE 14.1mph /  22.7km/h 20.0mph /  32.2km/h 23% 0.00in /  0mm meteobridge W/m2
12:57 84.4 °F /  29.1 °C 44.8 °F /  7.1 °C 29.59in /  1001.9hPa NE 4.0mph /  6.4km/h 11.0mph /  17.7km/h 25% 0.00in /  0mm meteobridge W/m2
13:03 83.1 °F /  28.4 °C 43.7 °F /  6.5 °C 29.59in /  1001.9hPa SSW 0.9mph /  1.4km/h 10.0mph /  16.1km/h 25% 0.00in /  0mm meteobridge W/m2
13:09 82.2 °F /  27.9 °C 43.9 °F /  6.6 °C 29.59in /  1001.9hPa NNE 19.0mph /  30.6km/h 19.0mph /  30.6km/h 26% 0.00in /  0mm meteobridge W/m2
13:16 81.9 °F /  27.7 °C 43.7 °F /  6.5 °C 29.59in /  1001.9hPa East 8.1mph /  13km/h 10.0mph /  16.1km/h 26% 0.00in /  0mm meteobridge W/m2
13:26 81.1 °F /  27.3 °C 43.0 °F /  6.1 °C 29.58in /  1001.6hPa North 4.9mph /  7.9km/h 8.0mph /  12.9km/h 26% 0.00in /  0mm meteobridge W/m2
13:32 81.5 °F /  27.5 °C 43.3 °F /  6.3 °C 29.58in /  1001.6hPa NNE 4.0mph /  6.4km/h 12.0mph /  19.3km/h 26% 0.00in /  0mm meteobridge W/m2
13:38 81.7 °F /  27.6 °C 43.5 °F /  6.4 °C 29.58in /  1001.6hPa ENE 6.0mph /  9.7km/h 8.0mph /  12.9km/h 26% 0.00in /  0mm meteobridge W/m2
13:47 81.9 °F /  27.7 °C 44.6 °F /  7 °C 29.58in /  1001.6hPa South 4.0mph /  6.4km/h 7.0mph /  11.3km/h 27% 0.00in /  0mm meteobridge W/m2
13:53 79.9 °F /  26.6 °C 48.2 °F /  9 °C 29.59in /  1001.9hPa SSW 13.0mph /  20.9km/h 14.0mph /  22.5km/h 33% 0.00in /  0mm meteobridge W/m2
13:59 77.0 °F /  25 °C 48.0 °F /  8.9 °C 29.58in /  1001.6hPa South 10.1mph /  16.3km/h 10.1mph /  16.3km/h 36% 0.00in /  0mm meteobridge W/m2
14:05 76.3 °F /  24.6 °C 48.0 °F /  8.9 °C 29.58in /  1001.6hPa South 8.9mph /  14.3km/h 12.0mph /  19.3km/h 37% 0.00in /  0mm meteobridge W/m2
14:11 76.1 °F /  24.5 °C 48.6 °F /  9.2 °C 29.59in /  1001.9hPa SSE 15.0mph /  24.1km/h 15.0mph /  24.1km/h 38% 0.00in /  0mm meteobridge W/m2
14:17 76.5 °F /  24.7 °C 46.0 °F /  7.8 °C 29.59in /  1001.9hPa SSE 10.1mph /  16.3km/h 12.0mph /  19.3km/h 34% 0.00in /  0mm meteobridge W/m2
14:23 77.2 °F /  25.1 °C 45.9 °F /  7.7 °C 29.59in /  1001.9hPa South 4.9mph /  7.9km/h 12.0mph /  19.3km/h 33% 0.00in /  0mm meteobridge W/m2
14:29 77.4 °F /  25.2 °C 45.1 °F /  7.3 °C 29.58in /  1001.6hPa South 4.9mph /  7.9km/h 11.0mph /  17.7km/h 32% 0.00in /  0mm meteobridge W/m2
14:40 77.9 °F /  25.5 °C 44.8 °F /  7.1 °C 29.58in /  1001.6hPa SSE 13.0mph /  20.9km/h 15.0mph /  24.1km/h 31% 0.00in /  0mm meteobridge W/m2
14:46 78.1 °F /  25.6 °C 45.9 °F /  7.7 °C 29.58in /  1001.6hPa South 8.9mph /  14.3km/h 11.0mph /  17.7km/h 32% 0.00in /  0mm meteobridge W/m2
14:52 78.4 °F /  25.8 °C 46.2 °F /  7.9 °C 29.58in /  1001.6hPa SSE 11.0mph /  17.7km/h 11.0mph /  17.7km/h 32% 0.00in /  0mm meteobridge W/m2
14:58 78.6 °F /  25.9 °C 46.2 °F /  7.9 °C 29.58in /  1001.6hPa South 8.1mph /  13km/h 9.0mph /  14.5km/h 32% 0.00in /  0mm meteobridge W/m2
15:04 79.0 °F /  26.1 °C 47.5 °F /  8.6 °C 29.57in /  1001.2hPa South 4.9mph /  7.9km/h 7.0mph /  11.3km/h 33% 0.00in /  0mm meteobridge W/m2
15:21 78.3 °F /  25.7 °C 46.8 °F /  8.2 °C 29.58in /  1001.6hPa SW 8.9mph /  14.3km/h 9.0mph /  14.5km/h 33% 0.00in /  0mm meteobridge W/m2
15:27 77.5 °F /  25.3 °C 46.9 °F /  8.3 °C 29.57in /  1001.2hPa South 2.9mph /  4.7km/h 10.0mph /  16.1km/h 34% 0.00in /  0mm meteobridge W/m2
15:33 77.7 °F /  25.4 °C 46.4 °F /  8 °C 29.57in /  1001.2hPa South 6.9mph /  11.1km/h 13.0mph /  20.9km/h 33% 0.00in /  0mm meteobridge W/m2
15:39 78.3 °F /  25.7 °C 45.1 °F /  7.3 °C 29.58in /  1001.6hPa South 14.1mph /  22.7km/h 19.0mph /  30.6km/h 31% 0.00in /  0mm meteobridge W/m2
15:51 78.6 °F /  25.9 °C 44.6 °F /  7 °C 29.58in /  1001.6hPa SSW 2.9mph /  4.7km/h 11.0mph /  17.7km/h 30% 0.00in /  0mm meteobridge W/m2
15:57 79.2 °F /  26.2 °C 44.2 °F /  6.8 °C 29.59in /  1001.9hPa SW 4.0mph /  6.4km/h 15.0mph /  24.1km/h 29% 0.00in /  0mm meteobridge W/m2
16:03 79.3 °F /  26.3 °C 44.2 °F /  6.8 °C 29.59in /  1001.9hPa SSE 14.1mph /  22.7km/h 19.0mph /  30.6km/h 29% 0.00in /  0mm meteobridge W/m2
16:09 79.2 °F /  26.2 °C 44.2 °F /  6.8 °C 29.59in /  1001.9hPa South 8.9mph /  14.3km/h 19.0mph /  30.6km/h 29% 0.00in /  0mm meteobridge W/m2
16:16 78.6 °F /  25.9 °C 43.7 °F /  6.5 °C 29.59in /  1001.9hPa SSW 2.9mph /  4.7km/h 12.0mph /  19.3km/h 29% 0.00in /  0mm meteobridge W/m2
16:22 78.6 °F /  25.9 °C 43.7 °F /  6.5 °C 29.59in /  1001.9hPa SSE 4.0mph /  6.4km/h 6.0mph /  9.7km/h 29% 0.00in /  0mm meteobridge W/m2
16:30 79.2 °F /  26.2 °C 44.2 °F /  6.8 °C 29.58in /  1001.6hPa SSW 2.9mph /  4.7km/h 9.0mph /  14.5km/h 29% 0.00in /  0mm meteobridge W/m2
16:36 79.2 °F /  26.2 °C 44.2 °F /  6.8 °C 29.58in /  1001.6hPa South 4.0mph /  6.4km/h 10.0mph /  16.1km/h 29% 0.00in /  0mm meteobridge W/m2
16:42 79.2 °F /  26.2 °C 44.2 °F /  6.8 °C 29.58in /  1001.6hPa South 4.0mph /  6.4km/h 7.0mph /  11.3km/h 29% 0.00in /  0mm meteobridge W/m2
16:48 79.0 °F /  26.1 °C 44.1 °F /  6.7 °C 29.59in /  1001.9hPa SSW 2.9mph /  4.7km/h 10.0mph /  16.1km/h 29% 0.00in /  0mm meteobridge W/m2
16:54 78.8 °F /  26 °C 43.9 °F /  6.6 °C 29.59in /  1001.9hPa SSE 8.9mph /  14.3km/h 9.0mph /  14.5km/h 29% 0.00in /  0mm meteobridge W/m2
17:00 79.2 °F /  26.2 °C 43.2 °F /  6.2 °C 29.59in /  1001.9hPa SSW 4.0mph /  6.4km/h 10.0mph /  16.1km/h 28% 0.00in /  0mm meteobridge W/m2
17:06 78.6 °F /  25.9 °C 43.7 °F /  6.5 °C 29.59in /  1001.9hPa SSE 10.1mph /  16.3km/h 13.0mph /  20.9km/h 29% 0.00in /  0mm meteobridge W/m2
17:12 78.4 °F /  25.8 °C 43.5 °F /  6.4 °C 29.58in /  1001.6hPa ESE 2.0mph /  3.2km/h 9.0mph /  14.5km/h 29% 0.00in /  0mm meteobridge W/m2
17:18 79.2 °F /  26.2 °C 44.2 °F /  6.8 °C 29.58in /  1001.6hPa ESE 4.0mph /  6.4km/h 6.0mph /  9.7km/h 29% 0.00in /  0mm meteobridge W/m2
17:24 79.3 °F /  26.3 °C 43.3 °F /  6.3 °C 29.57in /  1001.2hPa South 8.9mph /  14.3km/h 12.0mph /  19.3km/h 28% 0.00in /  0mm meteobridge W/m2
17:31 79.0 °F /  26.1 °C 42.1 °F /  5.6 °C 29.58in /  1001.6hPa SE 2.9mph /  4.7km/h 8.0mph /  12.9km/h 27% 0.00in /  0mm meteobridge W/m2
17:37 78.6 °F /  25.9 °C 42.8 °F /  6 °C 29.58in /  1001.6hPa South 2.9mph /  4.7km/h 11.0mph /  17.7km/h 28% 0.00in /  0mm meteobridge W/m2
17:43 78.3 °F /  25.7 °C 42.4 °F /  5.8 °C 29.59in /  1001.9hPa Calm   6.0mph /  9.7km/h 28% 0.00in /  0mm meteobridge W/m2
17:49 78.3 °F /  25.7 °C 42.4 °F /  5.8 °C 29.59in /  1001.9hPa Calm   1.0mph /  1.6km/h 28% 0.00in /  0mm meteobridge W/m2
17:55 78.6 °F /  25.9 °C 42.8 °F /  6 °C 29.59in /  1001.9hPa South 0.9mph /  1.4km/h 3.0mph /  4.8km/h 28% 0.00in /  0mm meteobridge W/m2
18:01 78.8 °F /  26 °C 42.1 °F /  5.6 °C 29.59in /  1001.9hPa Calm   1.0mph /  1.6km/h 27% 0.00in /  0mm meteobridge W/m2
18:13 78.3 °F /  25.7 °C 42.4 °F /  5.8 °C 29.59in /  1001.9hPa South 4.0mph /  6.4km/h 4.0mph /  6.4km/h 28% 0.00in /  0mm meteobridge W/m2
18:19 78.1 °F /  25.6 °C 42.3 °F /  5.7 °C 29.60in /  1002.3hPa Calm   3.0mph /  4.8km/h 28% 0.00in /  0mm meteobridge W/m2
18:36 78.1 °F /  25.6 °C 42.3 °F /  5.7 °C 29.61in /  1002.6hPa SSW 2.0mph /  3.2km/h 3.0mph /  4.8km/h 28% 0.00in /  0mm meteobridge W/m2
18:49 77.9 °F /  25.5 °C 42.3 °F /  5.7 °C 29.62in /  1002.9hPa Calm     28% 0.00in /  0mm meteobridge W/m2
18:55 77.9 °F /  25.5 °C 42.3 °F /  5.7 °C 29.62in /  1002.9hPa Calm   -999.0mph /  -1607.7km/h 28% 0.00in /  0mm meteobridge W/m2
19:01 77.9 °F /  25.5 °C 42.3 °F /  5.7 °C 29.62in /  1002.9hPa North -999.9mph /  -1609.1km/h -999.0mph /  -1607.7km/h 28% 0.00in /  0mm meteobridge W/m2
Regenstein, Windhoek, Namibia
Compliments of Weather Underground - 2.5 mb